createdAt,value
2022-08-07T00:01:44.015Z,100330.50
2022-08-07T00:04:06.780Z,100322.78
2022-08-07T00:06:36.673Z,100333.59
2022-08-07T00:09:17.018Z,100328.81
2022-08-07T00:11:55.787Z,100324.69
2022-08-07T00:14:25.497Z,100323.03
2022-08-07T00:17:01.595Z,100333.41
2022-08-07T00:20:00.689Z,100331.44
2022-08-07T00:22:24.459Z,100325.84
2022-08-07T00:25:11.118Z,100329.06
2022-08-07T00:27:53.512Z,100319.09
2022-08-07T00:30:28.086Z,100329.81
2022-08-07T00:32:59.940Z,100325.22
2022-08-07T00:35:30.525Z,100328.53
2022-08-07T00:38:00.756Z,100321.97
2022-08-07T00:40:39.194Z,100330.84
2022-08-07T00:43:09.694Z,100333.78
2022-08-07T00:45:41.583Z,100331.03
2022-08-07T00:48:13.665Z,100324.69
2022-08-07T00:50:50.887Z,100321.97
2022-08-07T00:53:20.568Z,100321.53
2022-08-07T00:56:00.678Z,100320.09
2022-08-07T00:58:31.346Z,100315.19
2022-08-07T01:00:58.981Z,100319.66
2022-08-07T01:03:57.235Z,100316.78
2022-08-07T01:06:13.346Z,100305.78
2022-08-07T01:08:43.194Z,100300.34
2022-08-07T01:12:09.263Z,100309.88
2022-08-07T01:14:09.108Z,100309.16
2022-08-07T01:16:37.220Z,100318.81
2022-08-07T01:19:18.570Z,100309.72
2022-08-07T01:21:53.376Z,100312.88
2022-08-07T01:24:23.853Z,100317.78
2022-08-07T01:26:52.695Z,100325.22
2022-08-07T01:29:27.654Z,100323.56
2022-08-07T01:31:59.660Z,100324.44
2022-08-07T01:34:31.485Z,100319.34
2022-08-07T01:37:00.437Z,100317.69
2022-08-07T01:39:41.279Z,100314.84
2022-08-07T01:42:38.474Z,100316.25
2022-08-07T01:45:04.693Z,100311.66
2022-08-07T01:48:18.170Z,100315.00
2022-08-07T01:50:29.819Z,100319.91
2022-08-07T01:53:01.807Z,100315.84
2022-08-07T01:55:40.090Z,100319.22
2022-08-07T01:58:29.250Z,100310.84
2022-08-07T02:01:09.751Z,100305.03
2022-08-07T02:03:57.704Z,100320.38
2022-08-07T02:06:31.764Z,100322.53
2022-08-07T02:09:03.828Z,100316.66
2022-08-07T02:12:03.015Z,100320.44
2022-08-07T02:14:36.381Z,100318.84
2022-08-07T02:17:13.344Z,100322.34
2022-08-07T02:20:05.246Z,100331.50
2022-08-07T02:22:41.085Z,100324.66
2022-08-07T02:25:17.285Z,100342.47
2022-08-07T02:27:52.324Z,100342.09
2022-08-07T02:30:24.494Z,100336.72
2022-08-07T02:33:00.159Z,100339.69
2022-08-07T02:36:29.081Z,100332.72
2022-08-07T02:38:22.747Z,100342.37
2022-08-07T02:40:57.177Z,100340.50
2022-08-07T02:43:24.465Z,100344.66
2022-08-07T02:45:54.792Z,100347.12
2022-08-07T02:48:26.922Z,100345.00
2022-08-07T02:50:57.959Z,100349.06
2022-08-07T02:53:29.158Z,100345.81
2022-08-07T02:56:02.218Z,100348.63
2022-08-07T02:58:34.111Z,100342.25
2022-08-07T03:01:03.000Z,100340.44
2022-08-07T03:03:49.913Z,100352.78
2022-08-07T03:06:25.966Z,100349.84
2022-08-07T03:09:11.205Z,100343.09
2022-08-07T03:11:51.930Z,100347.91
2022-08-07T03:14:26.222Z,100344.41
2022-08-07T03:16:56.740Z,100343.50
2022-08-07T03:19:24.889Z,100350.41
2022-08-07T03:21:57.161Z,100343.19
2022-08-07T03:24:28.062Z,100353.09
2022-08-07T03:27:00.556Z,100350.66
2022-08-07T03:29:33.710Z,100354.75
2022-08-07T03:32:08.376Z,100356.25
2022-08-07T03:34:47.437Z,100349.94
2022-08-07T03:37:32.687Z,100346.66
2022-08-07T03:40:15.174Z,100343.50
2022-08-07T03:42:43.765Z,100332.31
2022-08-07T03:45:12.079Z,100349.59
2022-08-07T03:48:01.127Z,100358.19
2022-08-07T03:50:32.121Z,100364.56
2022-08-07T03:53:02.979Z,100365.22
2022-08-07T03:55:46.155Z,100367.44
2022-08-07T03:59:05.500Z,100372.34
2022-08-07T04:01:10.950Z,100376.72
2022-08-07T04:03:49.772Z,100377.91
2022-08-07T04:06:37.594Z,100379.94
2022-08-07T04:09:10.987Z,100387.41
2022-08-07T04:12:27.667Z,100379.94
2022-08-07T04:14:38.733Z,100384.38
2022-08-07T04:17:20.336Z,100389.19
2022-08-07T04:19:52.728Z,100401.94
2022-08-07T04:22:27.443Z,100398.28
2022-08-07T04:25:01.333Z,100400.00
2022-08-07T04:27:36.029Z,100403.81
2022-08-07T04:30:11.800Z,100409.00
2022-08-07T04:32:58.449Z,100410.66
2022-08-07T04:35:35.261Z,100397.72
2022-08-07T04:38:07.942Z,100397.88
2022-08-07T04:40:51.187Z,100405.09
2022-08-07T04:44:10.027Z,100411.00
2022-08-07T04:46:34.659Z,100416.22
2022-08-07T04:49:37.777Z,100422.94
2022-08-07T04:52:14.919Z,100409.87
2022-08-07T04:55:14.882Z,100414.06
2022-08-07T04:58:32.155Z,100408.88
2022-08-07T05:01:16.717Z,100415.28
2022-08-07T05:04:06.483Z,100413.78
2022-08-07T05:06:43.376Z,100412.88
2022-08-07T05:09:42.901Z,100405.84
2022-08-07T05:12:15.547Z,100410.00
2022-08-07T05:15:03.254Z,100415.16
2022-08-07T05:17:52.638Z,100423.31
2022-08-07T05:20:38.641Z,100426.44
2022-08-07T05:23:23.180Z,100433.16
2022-08-07T05:26:11.671Z,100434.44
2022-08-07T05:28:48.777Z,100449.91
2022-08-07T05:31:20.668Z,100444.34
2022-08-07T05:34:04.900Z,100452.16
2022-08-07T05:36:35.519Z,100450.22
2022-08-07T05:40:05.773Z,100448.41
2022-08-07T05:42:02.238Z,100459.66
2022-08-07T05:44:34.433Z,100456.25
2022-08-07T05:47:18.854Z,100451.03
2022-08-07T05:49:51.500Z,100456.38
2022-08-07T05:52:20.386Z,100455.03
2022-08-07T05:54:58.767Z,100457.69
2022-08-07T05:57:37.075Z,100463.41
2022-08-07T06:00:07.651Z,100465.59
2022-08-07T06:02:49.386Z,100465.84
2022-08-07T06:05:19.619Z,100462.62
2022-08-07T06:08:14.134Z,100461.09
2022-08-07T06:10:36.893Z,100459.31
2022-08-07T06:13:04.942Z,100458.94
2022-08-07T06:15:38.498Z,100452.12
2022-08-07T06:18:13.790Z,100457.37
2022-08-07T06:20:50.859Z,100462.50
2022-08-07T06:24:37.160Z,100467.19
2022-08-07T06:26:20.428Z,100455.25
2022-08-07T06:28:53.590Z,100464.44
2022-08-07T06:31:21.246Z,100468.00
2022-08-07T06:34:06.111Z,100462.41
2022-08-07T06:36:35.135Z,100470.69
2022-08-07T06:40:17.881Z,100477.69
2022-08-07T06:42:02.689Z,100474.06
2022-08-07T06:44:39.677Z,100477.50
2022-08-07T06:47:12.172Z,100479.38
2022-08-07T06:49:51.160Z,100485.31
2022-08-07T06:52:31.927Z,100495.25
2022-08-07T06:55:32.352Z,100491.09
2022-08-07T06:58:05.942Z,100491.88
2022-08-07T07:00:42.439Z,100487.59
2022-08-07T07:03:14.376Z,100494.13
2022-08-07T07:06:02.740Z,100476.72
2022-08-07T07:08:33.945Z,100477.63
2022-08-07T07:11:13.508Z,100481.69
2022-08-07T07:13:58.312Z,100485.00
2022-08-07T07:16:31.490Z,100482.16
2022-08-07T07:19:40.930Z,100478.44
2022-08-07T07:22:11.870Z,100480.44
2022-08-07T07:24:43.223Z,100482.62
2022-08-07T07:27:35.670Z,100489.19
2022-08-07T07:30:32.794Z,100490.03
2022-08-07T07:33:04.019Z,100483.00
2022-08-07T07:35:44.144Z,100485.88
2022-08-07T07:38:23.741Z,100476.00
2022-08-07T07:40:52.329Z,100481.03
2022-08-07T07:43:27.764Z,100476.03
2022-08-07T07:46:53.180Z,100482.97
2022-08-07T07:49:00.016Z,100468.97
2022-08-07T07:51:58.406Z,100474.03
2022-08-07T07:54:24.499Z,100480.66
2022-08-07T07:56:55.558Z,100477.09
2022-08-07T07:59:52.592Z,100487.69
2022-08-07T08:02:22.520Z,100492.97
2022-08-07T08:05:14.512Z,100487.63
2022-08-07T08:07:51.825Z,100494.34
2022-08-07T08:10:35.689Z,100499.09
2022-08-07T08:13:06.585Z,100492.25
2022-08-07T08:15:43.661Z,100502.41
2022-08-07T08:18:27.930Z,100494.50
2022-08-07T08:20:58.281Z,100498.28
2022-08-07T08:23:43.804Z,100493.31
2022-08-07T08:26:52.400Z,100493.12
2022-08-07T08:29:20.117Z,100496.88
2022-08-07T08:31:58.892Z,100493.00
2022-08-07T08:34:39.394Z,100494.09
2022-08-07T08:37:09.845Z,100493.47
2022-08-07T08:39:39.314Z,100499.72
2022-08-07T08:42:27.306Z,100501.16
2022-08-07T08:45:26.656Z,100490.66
2022-08-07T08:48:32.395Z,100501.00
2022-08-07T08:52:00.859Z,100492.06
2022-08-07T08:54:36.794Z,100495.47
2022-08-07T08:57:08.600Z,100503.28
2022-08-07T08:59:57.294Z,100498.69
2022-08-07T09:02:49.665Z,100501.97
2022-08-07T09:05:36.711Z,100494.81
2022-08-07T09:08:10.635Z,100497.72
2022-08-07T09:10:45.166Z,100497.69
2022-08-07T09:13:36.997Z,100497.75
2022-08-07T09:16:29.698Z,100499.38
2022-08-07T09:19:51.000Z,100501.91
2022-08-07T09:24:28.695Z,100505.66
2022-08-07T09:25:28.000Z,100509.25
2022-08-07T09:30:03.265Z,100501.97
2022-08-07T09:30:57.795Z,100491.88
2022-08-07T09:33:40.847Z,100493.47
2022-08-07T09:36:37.382Z,100487.47
2022-08-07T09:39:55.488Z,100489.28
2022-08-07T09:42:32.989Z,100490.59
2022-08-07T09:47:23.619Z,100481.53
2022-08-07T09:48:49.987Z,100490.06
2022-08-07T09:52:15.266Z,100486.00
2022-08-07T09:54:40.853Z,100487.19
2022-08-07T09:57:30.046Z,100476.03
2022-08-07T10:00:14.544Z,100464.84
2022-08-07T10:04:03.019Z,100459.69
2022-08-07T10:06:24.360Z,100465.13
2022-08-07T10:09:23.613Z,100457.81
2022-08-07T10:12:26.350Z,100455.00
2022-08-07T10:15:19.939Z,100457.91
2022-08-07T10:18:28.170Z,100450.97
2022-08-07T10:21:14.927Z,100445.25
2022-08-07T10:24:23.431Z,100446.16
2022-08-07T10:27:23.083Z,100444.84
2022-08-07T10:30:16.651Z,100445.03
2022-08-07T10:32:53.783Z,100441.50
2022-08-07T10:35:55.723Z,100438.38
2022-08-07T10:38:54.105Z,100437.37
2022-08-07T10:41:51.696Z,100427.59
2022-08-07T10:44:37.987Z,100424.81
2022-08-07T10:47:26.947Z,100420.19
2022-08-07T10:50:28.793Z,100419.22
2022-08-07T10:53:08.255Z,100422.38
2022-08-07T10:55:45.975Z,100416.37
2022-08-07T10:58:31.995Z,100425.53
2022-08-07T11:01:35.483Z,100422.06
2022-08-07T11:04:34.730Z,100420.91
2022-08-07T11:07:56.527Z,100421.34
2022-08-07T11:10:07.174Z,100406.56
2022-08-07T11:12:43.447Z,100403.19
2022-08-07T11:15:17.505Z,100393.88
2022-08-07T11:17:50.426Z,100395.56
2022-08-07T11:20:40.536Z,100402.16
2022-08-07T11:23:26.370Z,100390.56
2022-08-07T11:26:27.049Z,100393.50
2022-08-07T11:29:13.287Z,100394.06
2022-08-07T11:32:01.435Z,100395.38
2022-08-07T11:34:43.717Z,100383.34
2022-08-07T11:37:38.505Z,100381.34
2022-08-07T11:40:42.267Z,100384.44
2022-08-07T11:43:41.353Z,100383.22
2022-08-07T11:46:34.300Z,100377.72
2022-08-07T11:50:18.730Z,100374.56
2022-08-07T11:52:50.343Z,100368.03
2022-08-07T11:56:19.809Z,100368.56
2022-08-07T11:58:33.735Z,100353.06
2022-08-07T12:01:09.689Z,100356.00
2022-08-07T12:03:47.832Z,100357.06
2022-08-07T12:06:56.317Z,100348.34
2022-08-07T12:09:36.492Z,100352.09
2022-08-07T12:12:12.112Z,100353.88
2022-08-07T12:15:00.286Z,100356.56
2022-08-07T12:17:59.247Z,100344.19
2022-08-07T12:20:41.766Z,100344.63
2022-08-07T12:24:05.711Z,100341.72
2022-08-07T12:26:29.866Z,100343.59
2022-08-07T12:29:09.118Z,100334.03
2022-08-07T12:31:52.957Z,100330.38
2022-08-07T12:34:32.743Z,100335.22
2022-08-07T12:37:00.919Z,100333.16
2022-08-07T12:39:42.772Z,100330.47
2022-08-07T12:42:13.274Z,100325.09
2022-08-07T12:44:45.982Z,100330.22
2022-08-07T12:47:31.856Z,100319.97
2022-08-07T12:50:39.850Z,100316.28
2022-08-07T12:53:24.319Z,100314.34
2022-08-07T12:56:10.502Z,100321.00
2022-08-07T12:58:43.974Z,100316.25
2022-08-07T13:01:19.635Z,100302.06
2022-08-07T13:04:19.016Z,100312.84
2022-08-07T13:08:12.931Z,100313.59
2022-08-07T13:10:51.586Z,100309.97
2022-08-07T13:13:48.262Z,100305.34
2022-08-07T13:16:25.081Z,100295.13
2022-08-07T13:19:35.194Z,100298.09
2022-08-07T13:22:31.184Z,100300.75
2022-08-07T13:25:03.685Z,100294.34
2022-08-07T13:28:11.504Z,100293.94
2022-08-07T13:30:40.017Z,100290.22
2022-08-07T13:34:33.090Z,100290.59
2022-08-07T13:36:26.689Z,100285.03
2022-08-07T13:39:12.737Z,100286.88
2022-08-07T13:41:54.661Z,100272.22
2022-08-07T13:44:26.399Z,100277.56
2022-08-07T13:47:00.299Z,100266.50
2022-08-07T13:50:34.121Z,100265.50
2022-08-07T13:52:32.019Z,100265.88
2022-08-07T13:55:07.435Z,100259.66
2022-08-07T13:57:39.621Z,100253.31
2022-08-07T14:00:50.355Z,100258.53
2022-08-07T14:03:29.062Z,100246.66
2022-08-07T14:06:12.753Z,100245.06
2022-08-07T14:08:44.318Z,100247.13
2022-08-07T14:11:19.128Z,100252.25
2022-08-07T14:13:55.889Z,100249.91
2022-08-07T14:16:31.471Z,100245.22
2022-08-07T14:19:00.963Z,100241.53
2022-08-07T14:22:02.318Z,100241.00
2022-08-07T14:24:42.390Z,100237.16
2022-08-07T14:27:16.078Z,100238.88
2022-08-07T14:30:11.332Z,100236.53
2022-08-07T14:32:43.047Z,100230.53
2022-08-07T14:35:15.222Z,100236.19
2022-08-07T14:38:05.978Z,100227.91
2022-08-07T14:40:35.396Z,100224.66
2022-08-07T14:43:58.428Z,100222.97
2022-08-07T14:46:03.999Z,100218.75
2022-08-07T14:48:33.435Z,100216.19
2022-08-07T14:51:15.787Z,100218.88
2022-08-07T14:54:05.667Z,100214.81
2022-08-07T14:56:32.567Z,100214.03
2022-08-07T14:59:04.529Z,100206.41
2022-08-07T15:04:40.001Z,100198.31
2022-08-07T15:07:23.774Z,100204.97
2022-08-07T15:13:18.293Z,100198.44
2022-08-07T15:15:52.478Z,100191.50
2022-08-07T15:18:29.518Z,100180.75
2022-08-07T15:21:08.150Z,100186.69
2022-08-07T15:25:02.801Z,100180.25
2022-08-07T15:26:28.639Z,100188.28
2022-08-07T15:30:06.372Z,100183.44
2022-08-07T15:32:01.876Z,100180.63
2022-08-07T15:34:56.816Z,100179.09
2022-08-07T15:37:28.326Z,100182.75
2022-08-07T15:39:59.329Z,100184.84
2022-08-07T15:48:36.064Z,100179.13
2022-08-07T15:54:12.848Z,100172.84
2022-08-07T15:56:41.628Z,100168.94
2022-08-07T15:59:16.284Z,100164.41
2022-08-07T16:02:02.352Z,100171.94
2022-08-07T16:04:32.116Z,100174.81
2022-08-07T16:07:04.545Z,100173.09
2022-08-07T16:09:41.854Z,100171.16
2022-08-07T16:12:29.164Z,100171.47
2022-08-07T16:15:55.612Z,100177.09
2022-08-07T16:18:49.848Z,100175.63
2022-08-07T16:22:01.784Z,100175.22
2022-08-07T16:24:34.562Z,100171.47
2022-08-07T16:27:25.626Z,100172.25
2022-08-07T16:30:31.498Z,100169.66
2022-08-07T16:34:01.549Z,100176.53
2022-08-07T16:36:20.882Z,100180.31
2022-08-07T16:39:00.675Z,100173.28
2022-08-07T16:42:12.470Z,100177.62
2022-08-07T16:45:15.501Z,100170.28
2022-08-07T16:48:27.757Z,100169.78
2022-08-07T16:51:54.470Z,100172.28
2022-08-07T16:54:34.651Z,100173.44
2022-08-07T16:58:00.663Z,100173.66
2022-08-07T17:00:15.277Z,100173.63
2022-08-07T17:03:04.827Z,100173.53
2022-08-07T17:06:02.129Z,100169.19
2022-08-07T17:09:09.684Z,100166.44
2022-08-07T17:12:01.940Z,100170.34
2022-08-07T17:14:42.688Z,100172.72
2022-08-07T17:17:24.833Z,100167.56
2022-08-07T17:20:31.834Z,100177.34
2022-08-07T17:23:12.994Z,100180.13
2022-08-07T17:26:02.213Z,100183.47
2022-08-07T17:29:04.964Z,100174.47
2022-08-07T17:31:44.177Z,100181.50
2022-08-07T17:34:36.767Z,100172.25
2022-08-07T17:38:11.348Z,100177.44
2022-08-07T17:40:31.981Z,100179.00
2022-08-07T17:43:15.075Z,100187.75
2022-08-07T17:45:56.659Z,100185.87
2022-08-07T17:48:30.867Z,100182.78
2022-08-07T17:51:01.667Z,100180.06
2022-08-07T17:54:00.710Z,100187.50
2022-08-07T17:56:29.699Z,100191.59
2022-08-07T17:58:58.431Z,100196.47
2022-08-07T18:01:37.240Z,100195.75
2022-08-07T18:04:22.501Z,100198.72
2022-08-07T18:07:20.638Z,100199.87
2022-08-07T18:10:06.062Z,100218.81
2022-08-07T18:12:51.639Z,100216.97
2022-08-07T18:15:24.129Z,100227.37
2022-08-07T18:18:39.813Z,100230.41
2022-08-07T18:21:29.626Z,100228.44
2022-08-07T18:24:34.363Z,100230.84
2022-08-07T18:27:20.977Z,100225.22
2022-08-07T18:30:32.297Z,100226.69
2022-08-07T18:33:27.970Z,100232.12
2022-08-07T18:36:14.850Z,100232.47
2022-08-07T18:40:06.961Z,100232.81
2022-08-07T18:42:30.642Z,100229.25
2022-08-07T18:45:43.219Z,100235.22
2022-08-07T18:50:03.392Z,100240.97
2022-08-07T18:52:37.995Z,100238.81
2022-08-07T18:54:49.781Z,100246.66
2022-08-07T18:57:59.459Z,100245.88
2022-08-07T19:00:55.135Z,100255.69
2022-08-07T19:03:38.143Z,100256.63
2022-08-07T19:06:16.179Z,100262.56
2022-08-07T19:09:00.404Z,100276.12
2022-08-07T19:11:37.335Z,100276.38
2022-08-07T19:14:26.245Z,100281.63
2022-08-07T19:17:07.790Z,100292.84
2022-08-07T19:20:01.299Z,100296.97
2022-08-07T19:22:52.113Z,100305.81
2022-08-07T19:26:25.178Z,100316.66
2022-08-07T19:28:58.268Z,100319.47
2022-08-07T19:31:38.207Z,100326.03
2022-08-07T19:34:00.749Z,100328.09
2022-08-07T19:36:29.609Z,100329.56
2022-08-07T19:38:59.067Z,100333.94
2022-08-07T19:41:39.231Z,100332.41
2022-08-07T19:44:21.070Z,100338.81
2022-08-07T19:46:57.633Z,100345.22
2022-08-07T19:49:58.044Z,100346.44
2022-08-07T19:52:17.341Z,100338.53
2022-08-07T19:54:56.401Z,100341.91
2022-08-07T19:58:02.455Z,100346.25
2022-08-07T20:00:29.726Z,100348.06
2022-08-07T20:03:31.375Z,100356.22
2022-08-07T20:06:00.466Z,100350.69
2022-08-07T20:08:31.831Z,100355.81
2022-08-07T20:11:03.784Z,100348.59
2022-08-07T20:13:42.708Z,100345.59
2022-08-07T20:16:22.409Z,100354.56
2022-08-07T20:19:02.665Z,100348.00
2022-08-07T20:21:46.635Z,100366.91
2022-08-07T20:24:28.530Z,100372.97
2022-08-07T20:26:58.622Z,100370.72
2022-08-07T20:29:48.003Z,100370.72
2022-08-07T20:32:22.981Z,100369.06
2022-08-07T20:34:56.400Z,100367.50
2022-08-07T20:37:25.590Z,100372.34
2022-08-07T20:40:04.382Z,100371.28
2022-08-07T20:42:33.877Z,100371.94
2022-08-07T20:45:01.682Z,100375.91
2022-08-07T20:47:56.303Z,100382.38
2022-08-07T20:50:21.442Z,100370.56
2022-08-07T20:52:51.615Z,100368.09
2022-08-07T20:55:23.998Z,100364.56
2022-08-07T20:58:19.692Z,100367.84
2022-08-07T21:01:02.224Z,100372.87
2022-08-07T21:03:29.594Z,100375.13
2022-08-07T21:06:21.738Z,100369.34
2022-08-07T21:09:13.743Z,100368.53
2022-08-07T21:11:50.434Z,100383.09
2022-08-07T21:14:33.855Z,100381.03
2022-08-07T21:18:03.509Z,100379.00
2022-08-07T21:20:04.776Z,100379.00
2022-08-07T21:22:34.750Z,100394.94
2022-08-07T21:25:56.397Z,100390.16
2022-08-07T21:28:48.544Z,100388.72
2022-08-07T21:31:49.956Z,100388.94
2022-08-07T21:34:20.998Z,100390.63
2022-08-07T21:36:59.583Z,100396.22
2022-08-07T21:39:45.789Z,100393.53
2022-08-07T21:42:46.793Z,100399.75
2022-08-07T21:46:10.704Z,100396.00
2022-08-07T21:48:56.427Z,100401.59
2022-08-07T21:51:27.369Z,100403.84
2022-08-07T21:54:33.106Z,100399.47
2022-08-07T21:57:11.102Z,100405.91
2022-08-07T22:00:23.017Z,100410.41
2022-08-07T22:03:16.555Z,100400.66
2022-08-07T22:05:51.281Z,100413.00
2022-08-07T22:08:23.184Z,100420.03
2022-08-07T22:10:54.967Z,100417.78
2022-08-07T22:13:52.419Z,100414.41
2022-08-07T22:16:44.519Z,100409.03
2022-08-07T22:19:08.500Z,100411.09
2022-08-07T22:22:02.628Z,100410.03
2022-08-07T22:24:44.274Z,100414.78
2022-08-07T22:27:17.899Z,100417.69
2022-08-07T22:29:50.253Z,100410.19
2022-08-07T22:32:26.668Z,100412.88
2022-08-07T22:34:57.243Z,100417.63
2022-08-07T22:38:03.647Z,100424.22
2022-08-07T22:40:43.047Z,100418.66
2022-08-07T22:43:12.571Z,100426.28
2022-08-07T22:46:40.499Z,100423.97
2022-08-07T22:49:02.407Z,100425.56
2022-08-07T22:51:51.957Z,100439.00
2022-08-07T22:54:55.229Z,100434.38
2022-08-07T22:57:59.020Z,100435.56
2022-08-07T23:00:36.111Z,100435.56
2022-08-07T23:03:58.967Z,100444.53
2022-08-07T23:06:51.615Z,100446.78
2022-08-07T23:10:04.110Z,100461.69
2022-08-07T23:12:40.221Z,100459.91
2022-08-07T23:16:06.452Z,100457.41
2022-08-07T23:19:11.270Z,100434.34
2022-08-07T23:22:08.651Z,100439.63
2022-08-07T23:24:50.694Z,100449.00
2022-08-07T23:28:22.471Z,100443.31
2022-08-07T23:30:45.840Z,100456.31
2022-08-07T23:34:35.850Z,100459.19
2022-08-07T23:37:20.099Z,100462.91
2022-08-07T23:40:12.845Z,100464.37
2022-08-07T23:42:42.551Z,100465.59
2022-08-07T23:46:02.830Z,100459.53
2022-08-07T23:49:15.475Z,100450.84
2022-08-07T23:52:59.748Z,100454.22
2022-08-07T23:54:46.090Z,100444.53
2022-08-07T23:57:36.717Z,100444.00
